Time;durP1;ratioP1;P1;durP2;ratioP2;P2;SDS_P1;SDS_P2;PMS_P1;PMS_P2;Temp;Humidity;BMP_temperature;BMP_pressure;BME280_temperature;BME280_humidity;BME280_pressure;Samples;Min_cycle;Max_cycle;Signal;HPM_P1;HPM_P2
2023/05/06 00:01:46;;;;;;;7.22;2.65;;;17.20;59.60;;;;;;4944555;28;20892;-81
2023/05/06 00:04:12;;;;;;;7.03;2.78;;;17.10;59.50;;;;;;4939150;28;20443;-83
2023/05/06 00:06:38;;;;;;;8.13;3.35;;;17.10;59.70;;;;;;4944121;28;20103;-83
2023/05/06 00:09:03;;;;;;;6.30;2.10;;;17.10;60.00;;;;;;4939522;28;20511;-80
2023/05/06 00:11:29;;;;;;;5.22;2.22;;;17.00;60.20;;;;;;4941354;28;20147;-82
2023/05/06 00:13:55;;;;;;;7.57;2.88;;;17.00;60.70;;;;;;4942608;28;20440;-81
2023/05/06 00:16:22;;;;;;;9.50;2.47;;;17.00;61.10;;;;;;4942514;28;20031;-83
2023/05/06 00:18:47;;;;;;;13.32;3.10;;;17.00;61.50;;;;;;4936008;28;20723;-82
2023/05/06 00:21:13;;;;;;;8.65;2.83;;;17.00;61.90;;;;;;4943266;28;20032;-82
2023/05/06 00:23:39;;;;;;;10.23;3.05;;;17.00;62.10;;;;;;4943570;28;20408;-81
2023/05/06 00:26:05;;;;;;;7.32;2.33;;;17.00;62.30;;;;;;4947211;28;20046;-81
2023/05/06 00:28:32;;;;;;;9.30;3.45;;;17.00;62.50;;;;;;4940662;28;20043;-81
2023/05/06 00:30:58;;;;;;;9.13;3.05;;;17.00;62.70;;;;;;4942194;28;20114;-81
2023/05/06 00:33:25;;;;;;;8.07;2.38;;;17.00;62.90;;;;;;4943733;28;20487;-81
2023/05/06 00:35:51;;;;;;;7.55;2.65;;;17.00;63.10;;;;;;4943675;28;20553;-82
2023/05/06 00:38:18;;;;;;;8.07;3.00;;;16.90;63.10;;;;;;4942664;28;20090;-82
2023/05/06 00:40:44;;;;;;;8.73;2.42;;;16.90;63.20;;;;;;4946612;28;20788;-80
2023/05/06 00:43:10;;;;;;;5.03;2.10;;;16.90;63.30;;;;;;4940570;28;20059;-81
2023/05/06 00:45:37;;;;;;;8.40;2.58;;;16.90;63.40;;;;;;4940389;28;20110;-81
2023/05/06 00:48:05;;;;;;;7.55;2.53;;;16.90;63.50;;;;;;4941035;28;20055;-81
2023/05/06 00:50:32;;;;;;;7.75;3.08;;;16.90;63.60;;;;;;4940419;28;20110;-81
2023/05/06 00:52:59;;;;;;;7.85;3.08;;;16.90;63.70;;;;;;4937668;28;20536;-81
2023/05/06 00:55:26;;;;;;;7.80;2.72;;;17.00;64.00;;;;;;4939912;28;20035;-80
2023/05/06 00:57:53;;;;;;;7.40;2.90;;;16.90;63.90;;;;;;4938556;28;20117;-81
2023/05/06 01:00:19;;;;;;;6.43;2.85;;;16.90;64.00;;;;;;4940348;28;20027;-81
2023/05/06 01:02:48;;;;;;;6.80;2.75;;;17.00;64.20;;;;;;4940489;28;20187;-81
2023/05/06 01:05:21;;;;;;;5.72;2.75;;;16.90;64.10;;;;;;4954301;28;20130;-81
2023/05/06 01:08:05;;;;;;;7.55;2.85;;;16.90;64.10;;;;;;4942569;28;20045;-81
2023/05/06 01:10:43;;;;;;;5.88;2.50;;;16.90;64.10;;;;;;4938790;28;20070;-81
2023/05/06 01:13:35;;;;;;;7.65;2.90;;;17.00;64.40;;;;;;4941641;28;20046;-80
2023/05/06 01:16:03;;;;;;;12.27;2.40;;;16.90;64.40;;;;;;4954036;28;20546;-80
2023/05/06 01:18:31;;;;;;;10.07;3.13;;;16.90;64.20;;;;;;4935433;28;20062;-81
2023/05/06 01:21:00;;;;;;;9.40;2.88;;;16.90;64.30;;;;;;4937381;28;20027;-80
2023/05/06 01:23:26;;;;;;;5.80;2.33;;;16.90;64.40;;;;;;4941260;28;20039;-79
2023/05/06 01:25:52;;;;;;;7.45;2.58;;;16.90;64.40;;;;;;4942603;28;20031;-80
2023/05/06 01:28:18;;;;;;;10.52;2.83;;;16.80;64.30;;;;;;4935830;28;20038;-83
2023/05/06 01:30:59;;;;;;;10.63;3.42;;;16.80;64.40;;;;;;4935952;28;20371;-82
2023/05/06 01:33:45;;;;;;;7.03;2.47;;;16.80;64.50;;;;;;4954026;28;20949;-84
2023/05/06 01:36:31;;;;;;;7.63;2.50;;;16.80;64.70;;;;;;4949695;28;20223;-81
2023/05/06 01:39:14;;;;;;;9.93;3.15;;;16.80;64.80;;;;;;4937435;29;20451;-81
2023/05/06 01:41:43;;;;;;;9.55;3.08;;;16.80;64.80;;;;;;4936805;28;20035;-82
2023/05/06 01:44:10;;;;;;;9.63;2.85;;;16.80;64.80;;;;;;4936323;28;20035;-83
2023/05/06 01:46:36;;;;;;;6.63;2.67;;;16.80;64.90;;;;;;4925025;29;20205;-81
2023/05/06 01:49:09;;;;;;;7.55;2.65;;;16.80;64.90;;;;;;4941950;28;20614;-81
2023/05/06 01:51:35;;;;;;;7.53;3.88;;;16.80;65.00;;;;;;4937070;28;20035;-83
2023/05/06 01:54:01;;;;;;;6.20;2.42;;;16.80;64.90;;;;;;4945468;28;20039;-82
2023/05/06 01:56:30;;;;;;;5.63;2.58;;;16.80;65.00;;;;;;4942068;28;20032;-82
2023/05/06 01:58:58;;;;;;;8.90;3.03;;;16.80;65.10;;;;;;4942531;28;20042;-82
2023/05/06 02:01:24;;;;;;;8.43;2.60;;;16.90;65.30;;;;;;4939921;28;20461;-82
2023/05/06 02:03:50;;;;;;;6.15;2.35;;;16.80;65.70;;;;;;4939137;28;20035;-82
2023/05/06 02:06:16;;;;;;;7.95;2.90;;;16.80;65.20;;;;;;4937405;28;20019;-83
2023/05/06 02:08:43;;;;;;;8.35;3.63;;;16.80;65.20;;;;;;4957360;28;20039;-83
2023/05/06 02:11:14;;;;;;;6.90;2.45;;;16.80;65.30;;;;;;4942475;28;20129;-82
2023/05/06 02:13:41;;;;;;;7.65;3.25;;;16.80;65.20;;;;;;4941503;28;20054;-82
2023/05/06 02:16:08;;;;;;;7.70;3.00;;;16.80;65.30;;;;;;4967461;28;20035;-83
2023/05/06 02:18:34;;;;;;;8.73;3.13;;;16.80;65.30;;;;;;4964600;28;20031;-82
2023/05/06 02:21:01;;;;;;;10.50;3.88;;;16.80;65.40;;;;;;4969433;28;20028;-83
2023/05/06 02:23:26;;;;;;;9.00;2.85;;;16.80;65.40;;;;;;4975278;28;20046;-83
2023/05/06 02:25:52;;;;;;;7.00;3.25;;;16.80;65.50;;;;;;4984598;28;20043;-83
2023/05/06 02:28:18;;;;;;;10.23;3.35;;;16.80;65.50;;;;;;4962684;28;20109;-82
2023/05/06 02:30:44;;;;;;;5.53;2.33;;;16.80;65.60;;;;;;4945878;29;20030;-83
2023/05/06 02:33:10;;;;;;;6.65;2.75;;;16.80;65.60;;;;;;4940060;28;20124;-83
2023/05/06 02:35:36;;;;;;;8.93;2.85;;;16.80;65.60;;;;;;4939675;28;20082;-83
2023/05/06 02:38:03;;;;;;;7.70;3.35;;;16.80;65.60;;;;;;4938648;28;20047;-83
2023/05/06 02:40:29;;;;;;;8.00;3.22;;;16.80;65.60;;;;;;4947958;28;20105;-83
2023/05/06 02:42:55;;;;;;;7.80;2.90;;;16.80;65.60;;;;;;4941272;28;20746;-84
2023/05/06 02:45:21;;;;;;;8.60;4.15;;;16.80;65.60;;;;;;4941833;28;20038;-81
2023/05/06 02:47:46;;;;;;;7.75;2.78;;;16.80;65.60;;;;;;4936575;28;20051;-82
2023/05/06 02:50:12;;;;;;;9.95;2.90;;;16.80;65.70;;;;;;4944384;28;20032;-85
2023/05/06 02:52:38;;;;;;;10.07;2.92;;;16.80;65.70;;;;;;4940565;28;20511;-82
2023/05/06 02:55:05;;;;;;;9.20;3.58;;;16.80;65.80;;;;;;4930854;28;20125;-82
2023/05/06 02:57:32;;;;;;;10.32;4.60;;;16.80;65.80;;;;;;4948944;28;20081;-82
2023/05/06 02:59:58;;;;;;;8.43;3.03;;;16.80;65.90;;;;;;4959732;28;20031;-82
2023/05/06 03:02:24;;;;;;;9.85;3.67;;;16.80;65.90;;;;;;4955115;28;20038;-82
2023/05/06 03:04:50;;;;;;;7.75;2.88;;;16.80;66.00;;;;;;4948667;28;20058;-82
2023/05/06 03:07:16;;;;;;;10.63;3.15;;;16.80;66.10;;;;;;4952306;28;20131;-82
2023/05/06 03:09:43;;;;;;;10.50;3.30;;;16.80;66.10;;;;;;4953091;28;20575;-83
2023/05/06 03:12:10;;;;;;;8.50;2.95;;;16.80;66.10;;;;;;4939165;28;20098;-82
2023/05/06 03:14:36;;;;;;;7.25;3.30;;;16.80;66.10;;;;;;4941209;28;20045;-82
2023/05/06 03:17:03;;;;;;;8.40;2.80;;;16.80;66.20;;;;;;4941636;28;20568;-80
2023/05/06 03:19:32;;;;;;;7.57;2.72;;;16.80;66.20;;;;;;4944203;28;20039;-80
2023/05/06 03:21:58;;;;;;;8.30;2.33;;;16.80;66.20;;;;;;4954398;28;20510;-82
2023/05/06 03:24:24;;;;;;;9.35;3.30;;;16.80;66.20;;;;;;4957030;28;20146;-81
2023/05/06 03:26:51;;;;;;;6.05;2.50;;;16.80;66.30;;;;;;4957706;28;20039;-84
2023/05/06 03:29:16;;;;;;;8.55;2.50;;;16.80;66.30;;;;;;4954616;28;20038;-84
2023/05/06 03:31:44;;;;;;;10.30;2.97;;;16.80;66.30;;;;;;4947244;28;20042;-84
2023/05/06 03:34:11;;;;;;;8.20;3.15;;;16.80;66.20;;;;;;4951813;28;20096;-83
2023/05/06 03:36:37;;;;;;;5.53;2.47;;;16.80;66.20;;;;;;4943902;28;20066;-84
2023/05/06 03:39:03;;;;;;;9.23;3.10;;;16.80;66.10;;;;;;4949515;28;20082;-84
2023/05/06 03:41:32;;;;;;;7.05;3.92;;;16.80;66.10;;;;;;4947708;28;20874;-82
2023/05/06 03:43:59;;;;;;;8.43;2.80;;;16.80;66.00;;;;;;4932778;28;20577;-82
2023/05/06 03:46:27;;;;;;;5.90;2.35;;;16.70;65.80;;;;;;4955530;28;20491;-83
2023/05/06 03:48:53;;;;;;;7.18;2.70;;;16.70;65.80;;;;;;4953912;28;20047;-83
2023/05/06 03:51:20;;;;;;;6.70;2.58;;;16.60;65.60;;;;;;4940649;28;20237;-84
2023/05/06 03:53:46;;;;;;;7.03;3.33;;;16.60;65.60;;;;;;4950289;28;20383;-83
2023/05/06 03:56:13;;;;;;;9.52;3.25;;;16.60;65.60;;;;;;4955535;28;20043;-84
2023/05/06 03:58:39;;;;;;;5.82;2.80;;;16.50;65.40;;;;;;4941166;28;20038;-84
2023/05/06 04:01:07;;;;;;;8.30;3.20;;;16.50;65.40;;;;;;4953544;28;20440;-85
2023/05/06 04:03:33;;;;;;;7.15;3.25;;;16.50;65.40;;;;;;4961268;28;20113;-86
2023/05/06 04:06:00;;;;;;;10.82;4.05;;;16.40;65.20;;;;;;4949117;28;20829;-85
2023/05/06 04:08:27;;;;;;;9.30;4.05;;;16.40;65.30;;;;;;4958409;28;20030;-86
2023/05/06 04:10:54;;;;;;;7.22;3.13;;;16.40;65.30;;;;;;4953816;28;20043;-88
2023/05/06 04:13:29;;;;;;;10.00;4.07;;;16.40;65.30;;;;;;4943855;28;20452;-87
2023/05/06 04:15:57;;;;;;;8.95;3.55;;;16.30;65.10;;;;;;4956406;28;20039;-87
2023/05/06 04:18:30;;;;;;;7.57;2.63;;;16.30;65.10;;;;;;4953581;28;20046;-86
2023/05/06 04:21:04;;;;;;;6.72;3.75;;;16.30;65.10;;;;;;4957948;28;20209;-84
2023/05/06 04:23:33;;;;;;;8.07;3.05;;;16.20;64.90;;;;;;4955444;28;20042;-84
2023/05/06 04:25:59;;;;;;;8.32;3.28;;;16.30;65.10;;;;;;4958279;28;20038;-83
2023/05/06 04:28:26;;;;;;;11.48;4.45;;;16.30;65.20;;;;;;4952350;28;20042;-83
2023/05/06 04:30:53;;;;;;;7.93;2.92;;;16.20;65.00;;;;;;4950598;28;20502;-81
2023/05/06 04:33:23;;;;;;;9.25;3.97;;;16.20;65.00;;;;;;4954103;28;20047;-83
2023/05/06 04:35:54;;;;;;;7.40;3.10;;;16.20;65.00;;;;;;4945291;29;20035;-81
2023/05/06 04:38:24;;;;;;;5.83;2.90;;;16.20;65.00;;;;;;4941945;28;20407;-82
2023/05/06 04:40:51;;;;;;;11.55;4.28;;;16.20;65.00;;;;;;4949219;29;20546;-83
2023/05/06 04:43:17;;;;;;;10.57;4.03;;;16.20;65.00;;;;;;4947270;28;20031;-83
2023/05/06 04:45:48;;;;;;;9.63;3.70;;;16.10;64.80;;;;;;4954434;28;20038;-83
2023/05/06 04:48:18;;;;;;;11.02;3.65;;;16.20;65.00;;;;;;4938753;28;20558;-83
2023/05/06 04:50:45;;;;;;;9.60;3.78;;;16.10;64.80;;;;;;4946756;28;20067;-83
2023/05/06 04:53:12;;;;;;;8.30;3.80;;;16.10;64.80;;;;;;4946375;28;20404;-83
2023/05/06 04:55:38;;;;;;;6.43;3.55;;;16.00;64.70;;;;;;4937907;28;20045;-82
2023/05/06 04:58:04;;;;;;;7.30;4.00;;;16.10;64.90;;;;;;4957157;28;20047;-83
2023/05/06 05:00:30;;;;;;;7.63;3.53;;;16.10;65.00;;;;;;4929070;28;20035;-83
2023/05/06 05:02:56;;;;;;;11.48;4.75;;;16.00;64.80;;;;;;4951512;28;20063;-85
2023/05/06 05:05:23;;;;;;;8.43;3.42;;;16.00;65.00;;;;;;4949289;28;20023;-85
2023/05/06 05:07:51;;;;;;;6.93;3.63;;;16.00;65.00;;;;;;4930278;28;20687;-85
2023/05/06 05:10:18;;;;;;;10.05;4.55;;;16.00;65.00;;;;;;4934853;28;20129;-87
2023/05/06 05:12:45;;;;;;;8.88;4.43;;;16.00;65.00;;;;;;4945091;28;20040;-87
2023/05/06 05:15:13;;;;;;;8.30;4.15;;;16.00;65.00;;;;;;4958612;28;20434;-87
2023/05/06 05:17:39;;;;;;;7.13;3.63;;;16.00;65.10;;;;;;4952889;28;20067;-86
2023/05/06 05:20:07;;;;;;;7.75;3.28;;;15.90;64.90;;;;;;4954473;28;20038;-87
2023/05/06 05:22:33;;;;;;;7.05;3.78;;;15.90;65.00;;;;;;4950015;28;20039;-86
2023/05/06 05:25:00;;;;;;;7.75;3.03;;;15.90;65.00;;;;;;4945876;28;20056;-84
2023/05/06 05:27:26;;;;;;;6.45;2.92;;;15.90;65.00;;;;;;4948994;28;20043;-84
2023/05/06 05:29:53;;;;;;;7.53;2.60;;;15.90;65.00;;;;;;4927151;29;20385;-86
2023/05/06 05:32:20;;;;;;;7.07;2.50;;;15.90;65.00;;;;;;4950070;28;20038;-83
2023/05/06 05:34:46;;;;;;;4.18;2.58;;;16.00;65.20;;;;;;4949030;28;20086;-82
2023/05/06 05:37:12;;;;;;;5.78;2.47;;;16.00;65.20;;;;;;4945549;28;20054;-84
2023/05/06 05:39:38;;;;;;;5.05;2.38;;;16.00;65.10;;;;;;4953808;28;20495;-82
2023/05/06 05:42:05;;;;;;;4.97;2.80;;;16.00;65.10;;;;;;4937932;28;20646;-80
2023/05/06 05:44:33;;;;;;;4.80;3.17;;;16.00;65.10;;;;;;4951831;28;20066;-83
2023/05/06 05:47:01;;;;;;;5.38;2.58;;;16.00;65.10;;;;;;4951985;28;20421;-81
2023/05/06 05:49:28;;;;;;;5.55;3.03;;;16.00;65.10;;;;;;4940059;28;20038;-83
2023/05/06 05:51:55;;;;;;;4.95;3.08;;;16.00;65.10;;;;;;4944699;28;20043;-87
2023/05/06 05:54:21;;;;;;;4.13;2.42;;;16.00;65.10;;;;;;4948435;28;20522;-83
2023/05/06 05:56:47;;;;;;;3.65;1.80;;;16.00;65.10;;;;;;4940124;28;20067;-83
2023/05/06 05:59:14;;;;;;;3.10;2.00;;;16.00;65.30;;;;;;4951374;28;20050;-83
2023/05/06 06:01:41;;;;;;;9.05;3.28;;;16.00;65.40;;;;;;4943475;28;20074;-81
2023/05/06 06:04:08;;;;;;;4.43;2.35;;;16.10;65.60;;;;;;4939170;28;20120;-80
2023/05/06 06:06:34;;;;;;;5.82;2.33;;;16.10;65.60;;;;;;4945152;28;20788;-82
2023/05/06 06:09:00;;;;;;;2.95;2.00;;;16.10;65.60;;;;;;4933816;28;20362;-82
2023/05/06 06:11:27;;;;;;;5.40;2.50;;;16.20;65.80;;;;;;4934710;28;20027;-81
2023/05/06 06:13:53;;;;;;;3.10;2.05;;;16.20;65.80;;;;;;4933276;28;20478;-81
2023/05/06 06:16:20;;;;;;;5.38;2.72;;;16.20;65.80;;;;;;4937393;28;20039;-83
2023/05/06 06:18:47;;;;;;;4.75;2.03;;;16.20;65.80;;;;;;4936828;28;20378;-84
2023/05/06 06:21:13;;;;;;;4.30;2.60;;;16.20;65.90;;;;;;4942696;28;20035;-83
2023/05/06 06:23:39;;;;;;;5.15;2.75;;;16.20;65.90;;;;;;4935430;28;20058;-81
2023/05/06 06:26:06;;;;;;;3.42;2.42;;;16.20;66.00;;;;;;4936846;28;20042;-82
2023/05/06 06:28:33;;;;;;;8.05;2.63;;;16.20;66.00;;;;;;4938337;28;20126;-81
2023/05/06 06:30:58;;;;;;;9.32;2.53;;;16.20;66.30;;;;;;4934169;28;20506;-83
2023/05/06 06:33:24;;;;;;;3.40;2.00;;;16.30;66.80;;;;;;4941960;28;20073;-83
2023/05/06 06:35:50;;;;;;;5.10;1.88;;;16.40;67.10;;;;;;4940224;28;20364;-84
2023/05/06 06:38:16;;;;;;;4.55;2.30;;;16.50;67.20;;;;;;4939000;28;20662;-84
2023/05/06 06:40:42;;;;;;;4.00;1.98;;;16.50;67.20;;;;;;4943730;28;20050;-81
2023/05/06 06:43:08;;;;;;;3.28;1.73;;;16.60;67.20;;;;;;4937672;28;20079;-81
2023/05/06 06:45:49;;;;;;;2.03;1.55;;;16.60;67.10;;;;;;4945871;28;20016;-82
2023/05/06 06:48:16;;;;;;;4.35;1.88;;;16.70;67.10;;;;;;4959596;28;20047;-81
2023/05/06 06:50:42;;;;;;;4.72;1.92;;;16.70;67.10;;;;;;4964137;28;20035;-80
2023/05/06 06:53:08;;;;;;;3.35;1.63;;;16.70;67.00;;;;;;4962183;28;20023;-81
2023/05/06 06:55:35;;;;;;;4.65;2.22;;;16.80;67.10;;;;;;4967738;28;20024;-82
2023/05/06 06:58:01;;;;;;;3.13;1.77;;;16.80;67.00;;;;;;4949068;28;20113;-82
2023/05/06 07:00:27;;;;;;;2.75;1.50;;;16.80;66.90;;;;;;4939375;28;20617;-81
2023/05/06 07:02:53;;;;;;;4.15;1.63;;;16.90;67.00;;;;;;4946160;28;20039;-82
2023/05/06 07:05:19;;;;;;;3.20;1.40;;;16.90;66.90;;;;;;4942603;28;20330;-82
2023/05/06 07:07:45;;;;;;;7.72;2.80;;;16.90;66.80;;;;;;4940602;28;20043;-81
2023/05/06 07:10:11;;;;;;;3.95;1.63;;;16.90;66.80;;;;;;4940468;28;20023;-81
2023/05/06 07:12:37;;;;;;;3.50;1.48;;;16.90;66.80;;;;;;4934384;28;20051;-81
2023/05/06 07:15:06;;;;;;;3.47;1.40;;;16.90;66.80;;;;;;4941146;28;20549;-81
2023/05/06 07:17:32;;;;;;;5.50;1.58;;;16.80;66.60;;;;;;4937338;28;20078;-80
2023/05/06 07:19:58;;;;;;;4.00;1.73;;;16.80;66.70;;;;;;4936363;28;20023;-80
2023/05/06 07:22:25;;;;;;;4.00;2.03;;;16.80;66.70;;;;;;4936455;28;20600;-80
2023/05/06 07:24:50;;;;;;;4.28;1.98;;;16.90;66.90;;;;;;4940362;28;20399;-82
2023/05/06 07:27:16;;;;;;;4.60;2.00;;;16.90;66.90;;;;;;4946605;28;20436;-82
2023/05/06 07:29:42;;;;;;;4.15;2.00;;;16.90;66.80;;;;;;4940909;28;20046;-81
2023/05/06 07:32:09;;;;;;;4.57;1.60;;;16.90;66.80;;;;;;4939223;28;20426;-80
2023/05/06 07:34:35;;;;;;;7.32;2.13;;;16.90;66.70;;;;;;4940190;28;20480;-80
2023/05/06 07:37:02;;;;;;;3.63;1.52;;;16.90;66.60;;;;;;4934338;28;20041;-80
2023/05/06 07:39:28;;;;;;;5.00;1.85;;;17.00;66.80;;;;;;4942326;28;20030;-81
2023/05/06 07:41:54;;;;;;;3.60;2.13;;;17.00;66.70;;;;;;4936655;28;20031;-80
2023/05/06 07:44:20;;;;;;;5.30;2.20;;;17.00;67.20;;;;;;4936074;28;20043;-80
2023/05/06 07:46:46;;;;;;;2.30;1.20;;;17.00;66.70;;;;;;4940625;28;20362;-79
2023/05/06 07:49:12;;;;;;;4.32;1.70;;;17.00;66.70;;;;;;4919360;29;20035;-81
2023/05/06 07:51:38;;;;;;;3.67;1.60;;;17.10;66.80;;;;;;4935162;28;20520;-81
2023/05/06 07:54:04;;;;;;;4.20;1.15;;;17.00;66.60;;;;;;4933734;28;20114;-81
2023/05/06 07:56:30;;;;;;;3.45;2.20;;;17.10;66.70;;;;;;4947020;28;20114;-82
2023/05/06 07:58:56;;;;;;;3.10;1.60;;;17.10;66.60;;;;;;4936394;28;20119;-80
2023/05/06 08:01:22;;;;;;;6.22;2.25;;;17.10;66.60;;;;;;4934245;28;20063;-81
2023/05/06 08:03:48;;;;;;;2.15;1.45;;;17.20;66.70;;;;;;4919323;28;20035;-77
2023/05/06 08:06:13;;;;;;;4.80;1.60;;;17.20;66.60;;;;;;4939639;28;20337;-81
2023/05/06 08:08:39;;;;;;;2.72;1.40;;;17.30;66.80;;;;;;4920540;28;20043;-82
2023/05/06 08:11:05;;;;;;;3.15;2.05;;;17.30;67.00;;;;;;4934764;28;20820;-81
2023/05/06 08:13:32;;;;;;;2.95;2.00;;;17.30;66.70;;;;;;4939008;28;20263;-80
2023/05/06 08:15:58;;;;;;;2.58;1.55;;;17.40;66.80;;;;;;4939249;28;20195;-79
2023/05/06 08:18:24;;;;;;;4.03;1.85;;;17.40;66.70;;;;;;4950580;28;20615;-82
2023/05/06 08:20:51;;;;;;;4.05;1.88;;;17.50;66.70;;;;;;4933733;28;20213;-80
2023/05/06 08:23:17;;;;;;;2.33;1.50;;;17.50;66.70;;;;;;4938356;28;20110;-80
2023/05/06 08:25:43;;;;;;;3.33;1.30;;;17.60;66.70;;;;;;4938047;28;20077;-78
2023/05/06 08:28:08;;;;;;;2.80;1.42;;;17.60;66.70;;;;;;4944710;28;20463;-78
2023/05/06 08:30:35;;;;;;;3.47;1.63;;;17.60;66.70;;;;;;4937238;28;20070;-81
2023/05/06 08:33:01;;;;;;;3.20;1.08;;;17.60;66.70;;;;;;4942137;28;20059;-81
2023/05/06 08:35:27;;;;;;;2.05;1.30;;;17.60;66.70;;;;;;4940956;28;20074;-82
2023/05/06 08:37:53;;;;;;;3.88;1.40;;;17.60;66.70;;;;;;4939170;28;21366;-81
2023/05/06 08:40:20;;;;;;;3.00;1.48;;;17.70;66.80;;;;;;4938862;28;20036;-77
2023/05/06 08:42:47;;;;;;;3.58;1.20;;;17.70;66.70;;;;;;4937191;28;20404;-79
2023/05/06 08:45:17;;;;;;;2.28;1.20;;;17.70;66.60;;;;;;4939821;28;20293;-81
2023/05/06 08:47:43;;;;;;;2.42;1.40;;;17.70;66.60;;;;;;4939281;28;20411;-81
2023/05/06 08:50:10;;;;;;;2.38;1.45;;;17.80;66.70;;;;;;4940168;28;20046;-79
2023/05/06 08:52:37;;;;;;;4.65;1.35;;;17.80;66.80;;;;;;4947459;28;20047;-79
2023/05/06 08:55:04;;;;;;;4.10;1.45;;;17.90;66.90;;;;;;4934637;28;20043;-77
2023/05/06 08:57:31;;;;;;;1.88;0.90;;;17.90;66.80;;;;;;4939911;28;20035;-78
2023/05/06 08:59:58;;;;;;;2.05;1.10;;;17.90;66.70;;;;;;4929714;28;20031;-78
2023/05/06 09:02:24;;;;;;;1.08;0.80;;;18.00;66.80;;;;;;4938016;28;20123;-78
2023/05/06 09:04:55;;;;;;;2.13;0.80;;;18.00;66.70;;;;;;4933024;28;20110;-78
2023/05/06 09:07:22;;;;;;;2.40;0.70;;;18.00;66.70;;;;;;4941543;28;20741;-78
2023/05/06 09:09:48;;;;;;;2.78;0.90;;;18.00;66.60;;;;;;4937852;28;20027;-78
2023/05/06 09:12:14;;;;;;;1.63;0.90;;;18.00;66.50;;;;;;4939716;28;20054;-80
2023/05/06 09:14:41;;;;;;;2.50;1.27;;;18.00;66.50;;;;;;4937378;28;20130;-80
2023/05/06 09:17:22;;;;;;;2.40;0.80;;;18.00;66.50;;;;;;4934712;28;20032;-81
2023/05/06 09:19:53;;;;;;;2.63;1.40;;;18.00;66.50;;;;;;4939186;28;20039;-82
2023/05/06 09:22:23;;;;;;;2.47;1.10;;;18.00;66.40;;;;;;4936954;28;20028;-82
2023/05/06 09:24:55;;;;;;;1.83;1.05;;;18.10;66.50;;;;;;4943168;28;20023;-82
2023/05/06 09:27:35;;;;;;;1.42;0.95;;;18.10;66.30;;;;;;4944471;28;20054;-91
2023/05/06 09:30:12;;;;;;;1.60;1.05;;;18.20;66.30;;;;;;4937916;28;20043;-90
2023/05/06 09:32:40;;;;;;;1.33;0.68;;;18.20;66.30;;;;;;4943691;28;20043;-92
2023/05/06 09:35:07;;;;;;;1.40;0.85;;;18.30;66.30;;;;;;4957458;28;20035;-93
2023/05/06 09:37:33;;;;;;;1.95;0.73;;;18.30;66.20;;;;;;4946074;28;20054;-88
2023/05/06 09:39:59;;;;;;;1.02;0.50;;;18.30;66.20;;;;;;4947139;28;20027;-90
2023/05/06 09:42:27;;;;;;;0.98;0.40;;;18.30;66.20;;;;;;4923733;29;20061;-93
2023/05/06 09:44:58;;;;;;;1.50;0.50;;;18.40;66.30;;;;;;4920223;29;20377;-89
2023/05/06 09:47:33;;;;;;;1.13;0.70;;;18.50;66.30;;;;;;4927447;28;20126;-89
2023/05/06 09:50:00;;;;;;;0.68;0.50;;;18.50;66.10;;;;;;4948486;28;20035;-88
2023/05/06 09:52:27;;;;;;;1.40;0.75;;;18.60;66.10;;;;;;4924987;28;20490;-88
2023/05/06 09:54:54;;;;;;;2.83;0.60;;;18.70;66.10;;;;;;4941575;28;20106;-86
2023/05/06 09:57:21;;;;;;;0.52;0.50;;;18.80;66.00;;;;;;4943240;28;20037;-85
2023/05/06 09:59:48;;;;;;;0.52;0.40;;;18.90;66.00;;;;;;4939500;28;20027;-85
2023/05/06 10:02:15;;;;;;;0.55;0.50;;;19.00;66.00;;;;;;4924057;29;20015;-82
2023/05/06 10:04:42;;;;;;;2.40;0.50;;;19.10;66.00;;;;;;4941098;28;20075;-83
2023/05/06 10:07:12;;;;;;;0.60;0.40;;;19.20;65.90;;;;;;4944584;28;20039;-85
2023/05/06 10:09:42;;;;;;;0.80;0.30;;;19.30;65.90;;;;;;4921549;29;20147;-87
2023/05/06 10:12:12;;;;;;;1.08;0.50;;;19.30;65.70;;;;;;4940926;28;20035;-85
2023/05/06 10:14:39;;;;;;;0.75;0.57;;;19.40;66.20;;;;;;4925173;28;20424;-85
2023/05/06 10:17:11;;;;;;;0.65;0.40;;;19.50;65.70;;;;;;4935306;28;20061;-88
2023/05/06 10:19:44;;;;;;;1.08;0.30;;;19.60;65.70;;;;;;4933731;28;20181;-89
2023/05/06 10:22:13;;;;;;;1.52;0.40;;;19.70;65.70;;;;;;4936462;28;20099;-90
2023/05/06 10:24:54;;;;;;;0.50;0.30;;;19.70;65.50;;;;;;4938963;28;20422;-87
2023/05/06 10:27:23;;;;;;;2.05;1.13;;;19.80;65.50;;;;;;4946476;28;20404;-82
2023/05/06 10:29:57;;;;;;;1.75;0.43;;;19.90;65.50;;;;;;4932329;28;20533;-84
2023/05/06 10:32:28;;;;;;;2.22;0.40;;;19.90;65.30;;;;;;4952168;28;20074;-84
2023/05/06 10:35:00;;;;;;;1.50;0.60;;;19.90;65.20;;;;;;4948119;28;20395;-82
2023/05/06 10:37:29;;;;;;;0.75;0.30;;;20.00;65.30;;;;;;4935014;28;20031;-82
2023/05/06 10:39:55;;;;;;;0.55;0.20;;;20.00;65.30;;;;;;4940950;28;20671;-91
2023/05/06 10:42:32;;;;;;;0.40;0.40;;;20.00;65.30;;;;;;4942077;28;20055;-86
2023/05/06 10:45:05;;;;;;;0.30;0.30;;;19.90;65.10;;;;;;4932071;28;20071;-83
2023/05/06 10:47:57;;;;;;;1.52;0.30;;;19.90;65.10;;;;;;4959253;28;20344;-83
2023/05/06 10:50:25;;;;;;;0.60;0.13;;;19.90;65.10;;;;;;4927802;28;20364;-82
2023/05/06 10:52:59;;;;;;;1.40;0.28;;;19.90;65.10;;;;;;4933568;28;20418;-83
2023/05/06 10:55:28;;;;;;;0.68;0.20;;;19.90;65.10;;;;;;4937841;28;20442;-86
2023/05/06 10:58:02;;;;;;;0.77;0.50;;;19.90;65.00;;;;;;4942854;28;20039;-80
2023/05/06 11:00:32;;;;;;;0.75;0.57;;;19.90;65.10;;;;;;4937117;28;20031;-88
2023/05/06 11:03:10;;;;;;;0.38;0.20;;;19.90;65.00;;;;;;4941141;28;20035;-92
2023/05/06 11:05:47;;;;;;;1.23;0.25;;;19.90;65.00;;;;;;4927421;29;20049;-91
2023/05/06 11:08:21;;;;;;;1.08;0.35;;;19.90;65.00;;;;;;4941778;28;20035;-93
2023/05/06 11:10:47;;;;;;;1.05;0.30;;;19.90;64.90;;;;;;4935530;28;20035;-90
2023/05/06 11:13:27;;;;;;;1.20;0.30;;;19.90;64.90;;;;;;4923382;28;20040;-88
2023/05/06 11:16:01;;;;;;;0.30;0.30;;;20.00;65.00;;;;;;4927721;28;20043;-95
2023/05/06 11:18:32;;;;;;;0.28;0.28;;;20.00;64.90;;;;;;4949553;28;20085;-96
2023/05/06 11:21:00;;;;;;;0.88;0.25;;;20.20;65.00;;;;;;4950698;29;20043;-87
2023/05/06 11:23:52;;;;;;;0.20;0.20;;;20.30;64.70;;;;;;4969083;28;20015;-87
2023/05/06 11:26:19;;;;;;;0.30;0.20;;;20.50;64.80;;;;;;4969533;28;20132;-87
2023/05/06 11:28:47;;;;;;;0.63;0.20;;;20.60;64.60;;;;;;4962670;28;20040;-88
2023/05/06 11:31:14;;;;;;;0.22;0.22;;;20.70;64.40;;;;;;4959104;28;20016;-90
2023/05/06 11:33:56;;;;;;;0.10;0.10;;;20.80;64.40;;;;;;4971651;28;20369;-90
2023/05/06 11:36:22;;;;;;;0.73;0.40;;;20.80;64.20;;;;;;4948687;28;20065;-86
2023/05/06 11:38:51;;;;;;;0.55;0.45;;;20.90;64.20;;;;;;4942972;28;20492;-83
2023/05/06 11:41:18;;;;;;;0.75;0.20;;;20.90;64.20;;;;;;4943366;28;20116;-82
2023/05/06 11:43:51;;;;;;;0.57;0.30;;;20.90;64.40;;;;;;4933718;28;20078;-82
2023/05/06 11:46:22;;;;;;;0.52;0.43;;;20.90;64.50;;;;;;4937514;28;20053;-80
2023/05/06 11:48:49;;;;;;;2.17;0.28;;;20.90;64.60;;;;;;4943109;28;20403;-81
2023/05/06 11:51:20;;;;;;;0.88;0.30;;;20.90;64.70;;;;;;4943681;28;20047;-83
2023/05/06 11:53:46;;;;;;;3.30;0.70;;;20.90;64.80;;;;;;4943241;28;20761;-83
2023/05/06 11:56:13;;;;;;;1.63;0.40;;;20.90;64.90;;;;;;4944730;28;20039;-83
2023/05/06 11:58:38;;;;;;;0.65;0.50;;;21.00;65.20;;;;;;4941925;28;20589;-86
2023/05/06 12:01:04;;;;;;;0.60;0.60;;;21.10;65.30;;;;;;4940510;28;20031;-81
2023/05/06 12:03:32;;;;;;;1.02;0.93;;;21.20;65.30;;;;;;4940729;28;20272;-79
2023/05/06 12:05:58;;;;;;;2.55;1.58;;;21.30;65.30;;;;;;4953313;28;20031;-80
2023/05/06 12:08:32;;;;;;;17.80;16.00;;;21.40;65.40;;;;;;4938739;28;20039;-83
2023/05/06 12:11:05;;;;;;;16.35;12.40;;;21.50;66.00;;;;;;4935075;28;20046;-82
2023/05/06 12:13:34;;;;;;;12.70;10.97;;;21.60;66.30;;;;;;4944342;28;20039;-83
2023/05/06 12:16:00;;;;;;;13.10;11.10;;;21.70;66.60;;;;;;4942872;28;20036;-82
2023/05/06 12:18:26;;;;;;;16.73;15.15;;;21.80;67.20;;;;;;4947714;28;20043;-81
2023/05/06 12:20:55;;;;;;;27.70;24.48;;;21.80;67.50;;;;;;4941142;28;20057;-82
2023/05/06 12:23:22;;;;;;;37.65;33.20;;;21.90;68.10;;;;;;4944318;28;20042;-86
2023/05/06 12:26:05;;;;;;;28.77;25.55;;;21.90;68.90;;;;;;4939453;28;20512;-81
2023/05/06 12:28:35;;;;;;;28.00;25.00;;;21.90;68.90;;;;;;4938518;28;20600;-85
2023/05/06 12:31:19;;;;;;;29.00;23.50;;;21.90;68.80;;;;;;4940389;28;20523;-85
2023/05/06 12:33:48;;;;;;;26.80;22.65;;;21.90;69.20;;;;;;4939532;28;20044;-84
2023/05/06 12:36:15;;;;;;;25.88;21.73;;;21.90;69.10;;;;;;4949769;28;20728;-90
2023/05/06 12:38:51;;;;;;;23.85;20.23;;;21.90;69.20;;;;;;4940062;28;20035;-85
2023/05/06 12:41:19;;;;;;;21.20;18.52;;;21.80;69.10;;;;;;4940899;28;20031;-80
2023/05/06 12:43:45;;;;;;;19.98;17.55;;;21.90;69.20;;;;;;4932127;28;20039;-80
2023/05/06 12:46:11;;;;;;;18.40;15.55;;;21.80;68.90;;;;;;4936152;28;20148;-86
2023/05/06 12:48:37;;;;;;;17.98;15.32;;;21.80;68.80;;;;;;4940789;28;20478;-83
2023/05/06 12:51:22;;;;;;;16.23;13.95;;;21.80;68.70;;;;;;4937078;28;20041;-82